Time;durP1;ratioP1;P1;durP2;ratioP2;P2;SDS_P1;SDS_P2;PMS_P1;PMS_P2;Temp;Humidity;BMP_temperature;BMP_pressure;BME280_temperature;BME280_humidity;BME280_pressure;Samples;Min_cycle;Max_cycle;Signal;HPM_P1;HPM_P2
2022/05/23 00:01:21;;;;;;;3.17;1.20;;;;;;;21.68;49.29;100888.00;5067231;28;20028;-57
2022/05/23 00:03:46;;;;;;;1.35;0.90;;;;;;;21.64;49.39;100892.13;5082335;28;20108;-57
2022/05/23 00:06:16;;;;;;;1.48;0.80;;;;;;;21.68;49.40;100894.25;5076631;28;20444;-55
2022/05/23 00:08:42;;;;;;;1.80;0.80;;;;;;;21.67;49.30;100880.94;5081011;28;20551;-56
2022/05/23 00:11:07;;;;;;;2.55;0.90;;;;;;;21.65;49.73;100874.84;5072749;28;20028;-57
2022/05/23 00:13:33;;;;;;;1.00;0.90;;;;;;;21.67;49.45;100867.41;5075710;28;20032;-55
2022/05/23 00:15:58;;;;;;;2.00;0.90;;;;;;;21.66;49.58;100858.44;5074628;28;20082;-54
2022/05/23 00:18:23;;;;;;;2.85;0.90;;;;;;;21.66;49.63;100857.59;5073351;28;20028;-56
2022/05/23 00:20:48;;;;;;;1.75;0.95;;;;;;;21.67;49.84;100848.47;5071108;28;20052;-57
2022/05/23 00:23:14;;;;;;;1.83;0.90;;;;;;;21.64;49.55;100840.72;5066249;28;20025;-56
2022/05/23 00:25:39;;;;;;;1.50;1.00;;;;;;;21.66;49.58;100842.22;5074095;28;20032;-56
2022/05/23 00:28:04;;;;;;;1.73;0.77;;;;;;;21.66;49.69;100841.34;5065876;28;20032;-54
2022/05/23 00:30:30;;;;;;;1.25;0.75;;;;;;;21.65;49.36;100834.25;5066409;28;20509;-56
2022/05/23 00:35:42;;;;;;;1.20;0.85;;;;;;;21.66;49.43;100830.53;5067567;28;20054;-56
2022/05/23 00:38:08;;;;;;;1.65;0.80;;;;;;;21.64;49.74;100825.31;5067284;28;20027;-57
2022/05/23 00:40:46;;;;;;;1.92;0.95;;;;;;;21.64;49.44;100817.19;5082149;28;20045;-57
2022/05/23 00:43:22;;;;;;;;;;;;;;;21.64;49.56;100810.94;5081718;28;20111;-54
2022/05/23 00:45:53;;;;;;;1.48;0.90;;;;;;;21.62;49.52;100802.16;5080138;28;19913;-56
2022/05/23 00:48:21;;;;;;;2.47;0.88;;;;;;;21.62;49.73;100794.03;5076847;28;20055;-57
2022/05/23 00:50:50;;;;;;;1.50;0.77;;;;;;;21.61;49.55;100793.22;5077983;28;20082;-56
2022/05/23 00:53:18;;;;;;;1.42;0.80;;;;;;;21.62;49.54;100805.72;5076277;28;20032;-57
2022/05/23 00:55:47;;;;;;;2.25;1.00;;;;;;;21.57;49.54;100788.38;5076325;28;20059;-57
2022/05/23 00:58:19;;;;;;;1.50;1.00;;;;;;;21.61;49.34;100784.25;5077167;28;20648;-56
2022/05/23 01:00:44;;;;;;;2.08;0.90;;;;;;;21.62;49.49;100777.81;5073459;28;20107;-55
2022/05/23 01:03:13;;;;;;;1.33;0.80;;;;;;;21.61;49.57;100771.56;5072610;28;20073;-56
2022/05/23 01:05:39;;;;;;;1.60;0.90;;;;;;;21.61;49.76;100768.03;5076763;28;20024;-57
2022/05/23 01:08:05;;;;;;;2.22;0.90;;;;;;;21.61;49.68;100765.31;5079501;28;20082;-57
2022/05/23 01:10:31;;;;;;;2.60;0.80;;;;;;;21.55;49.61;100750.69;5084667;28;20082;-57
2022/05/23 01:12:56;;;;;;;1.48;0.90;;;;;;;21.59;49.53;100754.69;5084139;28;20040;-56
2022/05/23 01:15:27;;;;;;;1.48;0.90;;;;;;;21.61;49.46;100746.38;5077477;28;20041;-57
2022/05/23 01:17:53;;;;;;;1.50;0.80;;;;;;;21.59;49.60;100743.03;5076781;28;20040;-58
2022/05/23 01:20:20;;;;;;;1.70;0.93;;;;;;;21.61;49.74;100741.81;5069190;28;20028;-57
2022/05/23 01:23:00;;;;;;;1.75;0.82;;;;;;;21.57;49.77;100728.84;5085544;28;20032;-58
2022/05/23 01:25:35;;;;;;;1.17;0.80;;;;;;;21.61;49.61;100735.56;5076465;28;20170;-58
2022/05/23 01:28:01;;;;;;;1.15;0.65;;;;;;;21.60;49.95;100723.06;5078222;28;20029;-55
2022/05/23 01:30:27;;;;;;;1.70;0.80;;;;;;;21.59;49.89;100718.69;5073674;28;20032;-57
2022/05/23 01:32:52;;;;;;;1.92;0.85;;;;;;;21.59;49.67;100716.81;5076731;28;20058;-56
2022/05/23 01:35:17;;;;;;;1.48;0.82;;;;;;;21.57;49.51;100701.78;5077377;28;20513;-56
2022/05/23 01:37:43;;;;;;;1.83;1.00;;;;;;;21.59;49.81;100710.56;5076744;28;20457;-55
2022/05/23 01:40:11;;;;;;;1.10;0.90;;;;;;;21.59;49.42;100710.56;5078548;28;20029;-57
2022/05/23 01:42:36;;;;;;;1.55;0.73;;;;;;;21.59;49.34;100706.00;5073305;28;20028;-58
2022/05/23 01:45:02;;;;;;;1.90;1.00;;;;;;;21.59;49.62;100708.72;5078816;28;20042;-57
2022/05/23 01:47:28;;;;;;;1.67;0.80;;;;;;;21.59;49.66;100713.28;5084019;28;20054;-57
2022/05/23 01:49:53;;;;;;;1.52;0.90;;;;;;;21.58;49.60;100711.59;5080169;28;20052;-58
2022/05/23 01:52:18;;;;;;;1.35;0.80;;;;;;;21.58;49.82;100714.28;5079280;28;20028;-57
2022/05/23 01:54:43;;;;;;;1.25;0.90;;;;;;;21.58;49.59;100715.16;5067510;28;20052;-57
2022/05/23 01:57:11;;;;;;;1.55;0.80;;;;;;;21.58;49.52;100714.28;5084156;28;20041;-57
2022/05/23 02:02:20;;;;;;;2.60;0.98;;;;;;;21.58;49.67;100719.69;5068960;28;20036;-56
2022/05/23 02:04:45;;;;;;;1.67;1.00;;;;;;;21.57;49.35;100724.28;5081312;28;20037;-56
2022/05/23 02:07:12;;;;;;;1.27;0.98;;;;;;;21.55;49.90;100715.53;5081732;28;20027;-57
2022/05/23 02:09:38;;;;;;;1.25;0.73;;;;;;;21.56;49.36;100711.78;5081222;28;20063;-56
2022/05/23 02:12:04;;;;;;;1.80;0.80;;;;;;;21.56;49.62;100710.94;5072748;28;20033;-57
2022/05/23 02:14:30;;;;;;;2.53;1.13;;;;;;;21.55;49.78;100712.00;5073552;28;20032;-57
2022/05/23 02:16:55;;;;;;;1.48;0.80;;;;;;;21.56;49.66;100719.91;5072505;28;20040;-56
2022/05/23 02:19:20;;;;;;;1.15;0.93;;;;;;;21.55;49.35;100707.41;5078178;28;20028;-58
2022/05/23 02:21:45;;;;;;;1.15;0.90;;;;;;;21.56;49.50;100713.66;5084110;28;20104;-56
2022/05/23 02:24:10;;;;;;;1.90;0.90;;;;;;;21.50;49.68;100695.50;5073025;28;20072;-57
2022/05/23 02:26:36;;;;;;;1.20;0.80;;;;;;;21.55;49.33;100710.13;5070147;28;20023;-58
2022/05/23 02:29:03;;;;;;;0.93;0.70;;;;;;;21.49;49.71;100696.50;5074619;28;20028;-55
2022/05/23 02:31:29;;;;;;;1.50;0.98;;;;;;;21.56;49.41;100702.84;5081891;28;20027;-57
2022/05/23 02:33:54;;;;;;;1.88;0.80;;;;;;;21.54;49.73;100699.50;5074849;28;20029;-58
2022/05/23 02:36:19;;;;;;;1.17;0.80;;;;;;;21.54;49.44;100696.78;5081006;28;20024;-56
2022/05/23 02:38:45;;;;;;;1.45;0.90;;;;;;;21.54;49.69;100699.50;5070501;28;20032;-57
2022/05/23 02:41:10;;;;;;;1.40;0.80;;;;;;;21.54;49.55;100697.63;5075072;28;20047;-56
2022/05/23 02:43:35;;;;;;;1.00;0.80;;;;;;;21.53;49.73;100695.09;5071768;28;20056;-56
2022/05/23 02:46:00;;;;;;;1.35;0.70;;;;;;;21.54;49.40;100694.09;5072071;28;20048;-57
2022/05/23 02:48:25;;;;;;;1.77;0.98;;;;;;;21.53;49.28;100687.81;5072509;28;20058;-58
2022/05/23 02:50:51;;;;;;;1.02;0.80;;;;;;;21.52;49.54;100691.56;5064372;28;20593;-58
2022/05/23 02:53:16;;;;;;;1.58;0.98;;;;;;;21.52;49.57;100683.44;5063086;28;20038;-57
2022/05/23 02:55:41;;;;;;;1.50;0.90;;;;;;;21.50;49.40;100674.69;5083296;28;20100;-57
2022/05/23 02:58:07;;;;;;;0.85;0.68;;;;;;;21.51;49.65;100678.22;5075195;28;20048;-58
2022/05/23 03:00:33;;;;;;;1.67;0.93;;;;;;;21.52;49.75;100678.03;5074072;28;20037;-55
2022/05/23 03:03:04;;;;;;;1.42;0.93;;;;;;;21.44;49.56;100657.34;5076013;28;20028;-58
2022/05/23 03:05:32;;;;;;;2.17;0.90;;;;;;;21.52;49.42;100669.06;5067431;28;20040;-57
2022/05/23 03:07:58;;;;;;;1.95;0.90;;;;;;;21.51;49.64;100665.53;5083416;28;20020;-57
2022/05/23 03:10:23;;;;;;;1.42;0.70;;;;;;;21.51;49.21;100660.13;5091552;28;20032;-57
2022/05/23 03:12:49;;;;;;;1.50;0.90;;;;;;;21.51;49.70;100652.00;5073230;28;20075;-57
2022/05/23 03:15:14;;;;;;;1.88;0.98;;;;;;;21.51;49.37;100652.00;5075852;28;20039;-56
2022/05/23 03:17:39;;;;;;;1.63;0.80;;;;;;;21.48;49.27;100643.44;5073093;28;20046;-58
2022/05/23 03:20:05;;;;;;;1.63;0.82;;;;;;;21.49;49.33;100642.41;5073507;28;20033;-57
2022/05/23 03:27:59;;;;;;;0.98;0.70;;;;;;;21.46;49.31;100630.13;5079510;28;20039;-56
2022/05/23 03:30:25;;;;;;;1.52;1.10;;;;;;;21.49;49.63;100637.81;5071837;28;20029;-57
2022/05/23 03:32:50;;;;;;;1.73;0.80;;;;;;;21.48;49.84;100629.91;5078887;28;20039;-57
2022/05/23 03:35:16;;;;;;;1.73;0.80;;;;;;;21.48;49.60;100619.94;5079583;28;20563;-57
2022/05/23 03:37:42;;;;;;;1.08;0.70;;;;;;;21.48;49.27;100613.69;5077777;28;20056;-56
2022/05/23 03:40:08;;;;;;;1.58;1.10;;;;;;;21.42;49.30;100604.47;5081413;28;20028;-57
2022/05/23 03:42:34;;;;;;;1.25;0.73;;;;;;;21.47;49.64;100602.03;5072994;28;20070;-56
2022/05/23 03:44:59;;;;;;;1.10;0.60;;;;;;;21.45;49.62;100594.13;5073135;28;20028;-55
2022/05/23 03:47:25;;;;;;;1.45;0.95;;;;;;;21.44;49.55;100584.31;5080263;28;20038;-58
2022/05/23 03:49:50;;;;;;;1.70;0.82;;;;;;;21.43;49.32;100573.69;5071715;28;20513;-55
2022/05/23 03:52:15;;;;;;;1.80;0.90;;;;;;;21.45;49.52;100569.78;5071598;28;20094;-57
2022/05/23 03:54:40;;;;;;;1.52;0.95;;;;;;;21.47;49.65;100572.28;5063234;28;20504;-56
2022/05/23 03:57:06;;;;;;;1.88;0.80;;;;;;;21.46;49.75;100567.91;5069217;28;20082;-58
2022/05/23 03:59:32;;;;;;;2.25;1.17;;;;;;;21.46;49.40;100552.50;5072677;28;20590;-58
2022/05/23 04:01:57;;;;;;;2.20;0.95;;;;;;;21.46;49.36;100557.94;5070659;28;20055;-58
2022/05/23 04:04:27;;;;;;;1.80;0.90;;;;;;;21.46;49.34;100552.50;5079588;28;20032;-57
2022/05/23 04:06:57;;;;;;;1.35;1.00;;;;;;;21.45;49.84;100552.69;5072009;28;20100;-57
2022/05/23 04:09:22;;;;;;;1.52;0.90;;;;;;;21.45;49.15;100547.28;5078637;28;20024;-58
2022/05/23 04:11:48;;;;;;;1.60;0.93;;;;;;;21.45;49.55;100548.16;5081892;28;20095;-56
2022/05/23 04:14:13;;;;;;;1.10;0.80;;;;;;;21.42;49.29;100543.13;5078608;28;20032;-56
2022/05/23 04:16:38;;;;;;;1.60;0.98;;;;;;;21.45;49.42;100545.44;5069501;28;20486;-57
2022/05/23 04:19:05;;;;;;;1.67;1.17;;;;;;;21.44;49.12;100538.34;5070819;28;20059;-57
2022/05/23 04:21:31;;;;;;;1.38;0.73;;;;;;;21.44;49.21;100538.34;5071679;28;20457;-57
2022/05/23 04:23:56;;;;;;;1.55;0.93;;;;;;;21.41;49.54;100530.63;5084257;28;20020;-57
2022/05/23 04:26:21;;;;;;;2.33;1.30;;;;;;;21.43;49.35;100533.13;5072745;28;20591;-58
2022/05/23 04:28:46;;;;;;;1.00;0.82;;;;;;;21.44;49.34;100532.91;5067527;28;20547;-57
2022/05/23 04:31:11;;;;;;;1.20;0.80;;;;;;;21.43;49.15;100533.97;5078128;28;20028;-54
2022/05/23 04:36:21;;;;;;;1.13;0.95;;;;;;;21.43;49.56;100514.19;5071718;28;20032;-58
2022/05/23 04:38:46;;;;;;;1.10;0.70;;;;;;;21.42;49.17;100515.22;5078363;28;20024;-58
2022/05/23 04:41:12;;;;;;;0.93;0.80;;;;;;;21.43;49.15;100512.31;5085676;28;20028;-57
2022/05/23 04:43:37;;;;;;;1.17;0.75;;;;;;;21.42;49.77;100502.53;5084774;28;20024;-57
2022/05/23 04:46:02;;;;;;;1.52;0.82;;;;;;;21.43;49.75;100501.50;5082893;28;20897;-56
2022/05/23 04:51:12;;;;;;;2.17;1.05;;;;;;;21.43;49.72;100497.97;5077195;28;20044;-56
2022/05/23 04:53:37;;;;;;;1.58;1.00;;;;;;;21.39;49.60;100485.88;5072356;28;20048;-56
2022/05/23 04:56:02;;;;;;;1.77;0.80;;;;;;;21.33;49.79;100482.09;5074856;28;20056;-57
2022/05/23 04:58:28;;;;;;;0.90;0.80;;;;;;;21.42;49.81;100494.44;5078040;28;20031;-56
2022/05/23 05:00:59;;;;;;;1.77;0.95;;;;;;;21.22;49.57;100456.34;5086019;28;20025;-57
2022/05/23 05:03:25;;;;;;;1.90;0.90;;;;;;;21.41;49.98;100487.34;5081346;28;20496;-57
2022/05/23 05:05:50;;;;;;;1.25;0.90;;;;;;;21.43;49.50;100487.16;5071949;28;20032;-56
2022/05/23 05:08:15;;;;;;;1.70;1.27;;;;;;;21.42;49.62;100480.91;5073716;28;20032;-57
2022/05/23 05:10:40;;;;;;;1.20;0.93;;;;;;;21.42;49.64;100474.66;5079845;28;20055;-57
2022/05/23 05:13:06;;;;;;;1.77;0.77;;;;;;;21.42;49.79;100475.50;5073794;28;20055;-57
2022/05/23 05:15:31;;;;;;;1.10;1.00;;;;;;;21.36;49.70;100464.59;5077589;28;20043;-56
2022/05/23 05:17:57;;;;;;;1.20;0.90;;;;;;;21.42;49.95;100466.56;5083814;28;20033;-56
2022/05/23 05:20:23;;;;;;;1.50;1.02;;;;;;;21.42;49.64;100471.97;5080352;28;20036;-55
2022/05/23 05:22:50;;;;;;;1.30;1.10;;;;;;;21.37;49.89;100455.50;5083437;28;20039;-55
2022/05/23 05:25:16;;;;;;;1.77;0.93;;;;;;;21.40;49.83;100455.91;5082630;28;20475;-56
2022/05/23 05:27:42;;;;;;;2.08;1.08;;;;;;;21.37;49.50;100445.50;5076814;28;20048;-49
2022/05/23 05:30:09;;;;;;;2.17;1.38;;;;;;;21.42;49.48;100450.31;5071990;28;20128;-52
2022/05/23 05:32:40;;;;;;;1.70;1.08;;;;;;;21.42;49.83;100451.16;5077452;28;20025;-52
2022/05/23 05:35:09;;;;;;;1.17;0.85;;;;;;;21.42;49.73;100451.16;5074539;28;20052;-52
2022/05/23 05:37:43;;;;;;;2.05;0.90;;;;;;;21.40;49.87;100447.78;5074813;28;20041;-56
2022/05/23 05:40:10;;;;;;;3.03;1.30;;;;;;;21.42;49.95;100442.22;5078724;28;20037;-56
2022/05/23 05:42:40;;;;;;;1.63;0.90;;;;;;;21.42;49.75;100445.75;5077014;28;20081;-56
2022/05/23 05:45:12;;;;;;;1.48;1.00;;;;;;;21.43;50.17;100446.56;5072048;28;20020;-55
2022/05/23 05:47:39;;;;;;;2.15;1.05;;;;;;;21.42;50.24;100442.22;5078484;28;20035;-55
2022/05/23 05:50:21;;;;;;;1.30;1.13;;;;;;;21.43;50.10;100441.16;5079305;28;20025;-55
2022/05/23 05:52:46;;;;;;;1.77;1.30;;;;;;;21.37;50.05;100423.03;5073562;28;20028;-52
2022/05/23 05:55:12;;;;;;;1.83;1.20;;;;;;;21.43;49.91;100430.34;5081863;28;20390;-52
2022/05/23 05:57:37;;;;;;;1.83;1.23;;;;;;;21.44;49.99;100434.72;5078673;28;20115;-53
2022/05/23 06:00:04;;;;;;;2.47;1.05;;;;;;;21.44;50.10;100429.31;5069629;28;20093;-55
2022/05/23 06:02:30;;;;;;;2.58;1.45;;;;;;;21.45;49.91;100430.97;5073880;28;20089;-54
2022/05/23 06:04:55;;;;;;;2.28;0.93;;;;;;;21.40;49.82;100426.16;5081506;28;20044;-55
2022/05/23 06:12:56;;;;;;;1.98;1.40;;;;;;;21.46;49.93;100421.84;5072871;28;20472;-54
2022/05/23 06:15:21;;;;;;;2.17;1.40;;;;;;;21.44;49.88;100416.63;5072871;28;20032;-52
2022/05/23 06:17:47;;;;;;;1.50;1.10;;;;;;;21.45;50.11;100415.63;5073969;28;20488;-54
2022/05/23 06:20:13;;;;;;;1.55;1.10;;;;;;;21.48;49.94;100418.94;5077565;28;20032;-51
2022/05/23 06:22:38;;;;;;;2.85;1.75;;;;;;;21.46;50.18;100409.16;5076232;28;20021;-52
2022/05/23 06:25:05;;;;;;;1.60;1.13;;;;;;;21.45;49.94;100396.69;5079480;28;20025;-53
2022/05/23 06:27:30;;;;;;;1.60;1.30;;;;;;;21.48;50.16;100397.31;5071456;28;20029;-54
2022/05/23 06:29:55;;;;;;;3.08;1.50;;;;;;;21.46;50.22;100395.63;5072667;28;20086;-55
2022/05/23 06:32:21;;;;;;;2.08;1.08;;;;;;;21.48;50.26;100392.72;5071223;28;20070;-52
2022/05/23 06:34:47;;;;;;;3.85;1.20;;;;;;;21.48;49.86;100389.19;5075254;28;20028;-52
2022/05/23 06:37:12;;;;;;;2.33;1.30;;;;;;;21.48;50.09;100394.59;5078841;28;20031;-50
2022/05/23 06:39:37;;;;;;;1.77;1.25;;;;;;;21.49;50.01;100391.69;5077842;28;20027;-51
2022/05/23 06:42:03;;;;;;;2.38;1.25;;;;;;;21.49;49.94;100396.25;5071741;28;20052;-54
2022/05/23 06:44:28;;;;;;;2.30;1.33;;;;;;;21.49;49.91;100397.09;5078586;28;20083;-53
2022/05/23 06:46:54;;;;;;;2.58;1.00;;;;;;;21.51;50.10;100388.81;5078848;28;20032;-52
2022/05/23 06:49:19;;;;;;;2.30;1.23;;;;;;;21.50;50.33;100384.44;5080821;28;20052;-56
2022/05/23 06:51:49;;;;;;;3.63;1.65;;;;;;;21.51;50.20;100375.28;5079837;28;20059;-57
2022/05/23 06:54:15;;;;;;;2.13;1.20;;;;;;;21.51;50.20;100381.50;5074203;28;20049;-53
2022/05/23 06:56:42;;;;;;;2.40;1.70;;;;;;;21.52;49.87;100369.66;5072862;28;20522;-54
2022/05/23 06:59:09;;;;;;;1.58;1.20;;;;;;;21.52;50.02;100369.66;5064084;28;20056;-55
2022/05/23 07:01:35;;;;;;;1.88;1.23;;;;;;;21.53;49.74;100367.78;5073780;28;20055;-51
2022/05/23 07:04:00;;;;;;;2.13;1.40;;;;;;;21.53;49.68;100368.63;5076601;28;20504;-55
2022/05/23 07:14:38;;;;;;;2.10;1.23;;;;;;;21.55;49.59;100363.84;5067850;28;20035;-53
2022/05/23 07:17:05;;;;;;;1.45;1.30;;;;;;;21.55;49.71;100358.44;5074152;28;20056;-53
2022/05/23 07:19:30;;;;;;;2.28;1.52;;;;;;;21.56;49.81;100351.16;5074506;28;20029;-53
2022/05/23 07:21:59;;;;;;;2.85;1.50;;;;;;;21.57;49.67;100352.81;5074936;28;20055;-53
2022/05/23 07:24:26;;;;;;;1.85;1.40;;;;;;;21.58;49.66;100352.66;5070561;28;20052;-53
2022/05/23 07:26:51;;;;;;;1.30;1.10;;;;;;;21.59;49.70;100345.38;5076684;28;20034;-55
2022/05/23 07:29:16;;;;;;;2.33;1.45;;;;;;;21.59;49.63;100340.78;5074659;28;20033;-56
2022/05/23 07:31:42;;;;;;;1.63;1.20;;;;;;;21.58;49.58;100333.72;5069591;28;20064;-55
2022/05/23 07:34:07;;;;;;;2.05;1.13;;;;;;;21.60;49.25;100347.84;5077911;28;20032;-52
2022/05/23 07:36:32;;;;;;;3.00;1.42;;;;;;;21.61;49.44;100336.00;5071839;28;20052;-52
2022/05/23 07:38:58;;;;;;;1.90;1.50;;;;;;;21.61;49.31;100330.59;5072566;28;20032;-53
2022/05/23 07:41:24;;;;;;;2.00;1.30;;;;;;;21.57;49.54;100320.38;5078695;28;20039;-52
2022/05/23 07:43:49;;;;;;;2.40;1.30;;;;;;;21.62;49.43;100318.75;5073434;28;20068;-49
2022/05/23 07:46:14;;;;;;;1.92;0.90;;;;;;;21.63;49.01;100322.28;5076517;28;20028;-52
2022/05/23 07:48:48;;;;;;;2.08;1.20;;;;;;;21.64;48.74;100318.53;5071808;28;20044;-55
2022/05/23 07:51:15;;;;;;;2.80;1.50;;;;;;;21.66;48.46;100319.16;5078511;28;20036;-55
2022/05/23 08:01:52;;;;;;;2.00;1.40;;;;;;;21.68;48.70;100295.47;5062160;28;20043;-54
2022/05/23 08:04:18;;;;;;;2.08;1.35;;;;;;;21.69;48.64;100295.25;5064570;28;20032;-53
2022/05/23 08:06:43;;;;;;;1.90;1.30;;;;;;;21.70;48.83;100290.66;5072243;28;20024;-53
2022/05/23 08:09:09;;;;;;;2.08;1.23;;;;;;;21.70;48.59;100286.09;5069247;28;20037;-49
2022/05/23 08:11:37;;;;;;;2.38;1.40;;;;;;;21.71;48.65;100276.13;5079054;28;20096;-50
2022/05/23 08:14:02;;;;;;;2.53;1.45;;;;;;;21.71;48.67;100273.41;5072913;28;20059;-53
2022/05/23 08:16:29;;;;;;;1.65;1.10;;;;;;;21.73;48.92;100275.91;5073286;28;20040;-52
2022/05/23 08:18:54;;;;;;;1.73;1.30;;;;;;;21.74;48.66;100270.28;5077038;28;20444;-50
2022/05/23 08:21:19;;;;;;;3.78;2.78;;;;;;;21.75;48.56;100266.56;5080054;28;20048;-51
2022/05/23 08:23:44;;;;;;;1.90;1.20;;;;;;;21.76;48.72;100260.09;5071296;28;20665;-50
2022/05/23 08:26:10;;;;;;;2.80;1.17;;;;;;;21.79;48.72;100253.44;5071450;28;20031;-52
2022/05/23 08:28:35;;;;;;;1.98;1.23;;;;;;;21.80;48.70;100261.38;5073844;28;20044;-54
2022/05/23 08:31:00;;;;;;;1.95;1.25;;;;;;;21.82;48.46;100255.75;5076165;28;20047;-49
2022/05/23 08:33:26;;;;;;;1.77;1.17;;;;;;;21.83;48.50;100252.00;5075498;28;20036;-50
2022/05/23 08:35:51;;;;;;;2.63;1.20;;;;;;;21.84;48.47;100245.56;5073226;28;20032;-52
2022/05/23 08:38:17;;;;;;;1.77;1.38;;;;;;;21.84;48.22;100235.56;5077746;28;20035;-50
2022/05/23 08:41:04;;;;;;;2.33;1.20;;;;;;;21.85;48.50;100234.53;5071858;28;20072;-50
2022/05/23 08:43:51;;;;;;;1.20;1.02;;;;;;;21.84;48.42;100224.75;5078365;28;20675;-56
2022/05/23 08:46:33;;;;;;;2.42;1.48;;;;;;;21.83;48.39;100225.75;5075460;28;20028;-51
2022/05/23 08:49:05;;;;;;;1.92;1.27;;;;;;;21.86;48.44;100232.66;5070253;28;20057;-50
2022/05/23 08:51:41;;;;;;;1.58;1.40;;;;;;;21.84;48.76;100226.63;5078336;28;20016;-52
2022/05/23 08:54:27;;;;;;;1.83;1.10;;;;;;;21.87;48.56;100232.44;5072825;28;20037;-53
2022/05/23 08:56:54;;;;;;;1.80;1.00;;;;;;;21.87;48.45;100231.59;5069326;28;20035;-51
2022/05/23 08:59:26;;;;;;;3.05;1.50;;;;;;;21.85;48.35;100229.13;5075953;28;20033;-53
2022/05/23 09:01:59;;;;;;;3.15;1.20;;;;;;;21.87;48.49;100228.91;5078518;28;20490;-49
2022/05/23 09:04:44;;;;;;;3.00;1.13;;;;;;;21.89;48.23;100232.25;5074430;28;20059;-53
2022/05/23 09:07:35;;;;;;;2.13;1.17;;;;;;;21.89;48.23;100234.94;5078869;28;20017;-48
2022/05/23 09:10:04;;;;;;;2.22;1.20;;;;;;;21.89;48.42;100227.66;5066469;28;20050;-52
2022/05/23 09:12:29;;;;;;;2.40;1.23;;;;;;;21.89;48.41;100224.97;5077747;28;20041;-55
2022/05/23 09:14:56;;;;;;;2.40;1.38;;;;;;;21.90;48.23;100217.66;5070813;28;20082;-51
2022/05/23 09:17:23;;;;;;;1.98;1.48;;;;;;;21.91;48.34;100209.34;5069054;28;20060;-54
2022/05/23 09:20:11;;;;;;;2.65;1.33;;;;;;;21.92;48.46;100205.63;5075901;28;20067;-50
2022/05/23 09:22:49;;;;;;;1.67;1.35;;;;;;;21.93;48.58;100195.63;5069427;28;20090;-54
2022/05/23 09:25:17;;;;;;;2.13;1.27;;;;;;;21.94;48.51;100202.69;5071725;28;20029;-47
2022/05/23 09:27:48;;;;;;;2.83;1.52;;;;;;;21.94;48.36;100194.56;5081316;28;20134;-50
2022/05/23 09:30:16;;;;;;;2.63;1.17;;;;;;;21.96;48.54;100184.34;5065542;28;20057;-49
2022/05/23 09:32:43;;;;;;;4.72;1.10;;;;;;;21.96;48.21;100168.97;5074781;28;20024;-53
2022/05/23 09:35:21;;;;;;;1.67;1.15;;;;;;;21.99;48.28;100181.25;5077282;28;20514;-52
2022/05/23 09:38:16;;;;;;;1.20;0.95;;;;;;;22.00;48.29;100160.41;5074122;28;20559;-52
2022/05/23 09:40:41;;;;;;;1.63;1.10;;;;;;;22.00;48.27;100150.41;5070023;28;20036;-53
2022/05/23 09:49:06;;;;;;;1.92;1.15;;;;;;;22.04;48.01;100135.44;5074852;28;20043;-50
2022/05/23 09:51:32;;;;;;;2.08;1.02;;;;;;;21.90;48.17;100114.81;5073043;28;20071;-53
2022/05/23 09:54:02;;;;;;;1.48;1.08;;;;;;;21.99;48.09;100127.09;5075031;28;20075;-48
2022/05/23 09:56:38;;;;;;;1.50;1.10;;;;;;;22.06;48.36;100127.94;5081224;28;20157;-51
2022/05/23 09:59:10;;;;;;;2.03;1.20;;;;;;;22.05;48.17;100122.75;5076067;28;20036;-52
2022/05/23 10:01:36;;;;;;;2.47;1.38;;;;;;;22.08;48.47;100119.63;5054615;28;20036;-48
2022/05/23 10:04:13;;;;;;;1.73;1.17;;;;;;;22.08;48.40;100112.31;5075554;28;20036;-50
2022/05/23 10:06:42;;;;;;;2.05;1.20;;;;;;;22.08;48.33;100106.91;5072379;28;20467;-54
2022/05/23 10:09:08;;;;;;;4.43;1.40;;;;;;;22.08;48.19;100100.66;5075655;28;20075;-49
2022/05/23 10:11:36;;;;;;;1.85;1.20;;;;;;;22.08;48.24;100101.50;5075639;28;20690;-54
2022/05/23 10:14:04;;;;;;;1.33;1.00;;;;;;;22.09;48.43;100102.31;5073384;28;20040;-54
2022/05/23 10:16:49;;;;;;;2.03;1.20;;;;;;;22.10;48.37;100104.00;5074594;28;20056;-50
2022/05/23 10:19:31;;;;;;;3.05;1.45;;;;;;;22.12;48.17;100101.91;5072960;28;20485;-56
2022/05/23 10:22:19;;;;;;;2.80;1.40;;;;;;;22.10;48.10;100099.41;5074055;28;20036;-58
2022/05/23 10:24:54;;;;;;;2.40;1.45;;;;;;;22.14;47.93;100094.47;5076087;28;20088;-58
2022/05/23 10:27:32;;;;;;;3.30;1.42;;;;;;;22.15;48.21;100083.41;5074277;28;20021;-58
2022/05/23 10:29:59;;;;;;;3.17;1.75;;;;;;;22.16;48.13;100073.41;5074560;28;20028;-57
2022/05/23 10:32:33;;;;;;;3.33;1.67;;;;;;;22.17;48.25;100081.34;5074109;28;20109;-58
2022/05/23 10:35:09;;;;;;;3.45;1.73;;;;;;;22.19;47.99;100081.94;5079972;28;20043;-52
2022/05/23 10:37:40;;;;;;;1.70;1.25;;;;;;;22.20;48.29;100075.47;5069608;28;20081;-58
2022/05/23 10:42:57;;;;;;;4.00;1.85;;;;;;;22.20;48.30;100066.53;5067476;28;20039;-53
2022/05/23 10:45:25;;;;;;;2.47;1.38;;;;;;;22.21;48.29;100069.00;5077431;28;20029;-54
2022/05/23 10:48:02;;;;;;;4.30;1.58;;;;;;;22.18;48.36;100060.50;5079606;28;20039;-54
2022/05/23 10:50:40;;;;;;;3.15;1.75;;;;;;;22.15;48.46;100045.50;5069084;28;20132;-52
2022/05/23 10:53:30;;;;;;;2.47;1.65;;;;;;;22.21;48.29;100050.06;5079136;28;20047;-53
2022/05/23 10:56:01;;;;;;;1.80;1.50;;;;;;;22.20;48.56;100050.28;5072580;28;20128;-56
2022/05/23 10:58:40;;;;;;;2.72;1.67;;;;;;;22.20;48.21;100047.56;5075995;28;20064;-53
2022/05/23 11:01:22;;;;;;;2.47;1.65;;;;;;;22.20;48.73;100037.56;5078823;28;20029;-55
2022/05/23 11:03:59;;;;;;;2.28;1.52;;;;;;;22.13;48.46;100034.06;5073639;28;20033;-55
2022/05/23 11:06:37;;;;;;;2.70;1.48;;;;;;;22.19;48.60;100041.34;5078169;28;20020;-58
2022/05/23 11:09:24;;;;;;;2.60;1.77;;;;;;;22.19;48.75;100038.63;5078242;28;20153;-55
2022/05/23 11:12:00;;;;;;;2.00;1.48;;;;;;;22.19;48.78;100033.22;5076714;28;20028;-53
2022/05/23 11:14:28;;;;;;;2.25;1.50;;;;;;;22.18;48.63;100026.13;5060581;28;20013;-56
2022/05/23 11:17:00;;;;;;;1.88;1.63;;;;;;;22.18;48.81;100019.91;5073687;28;20037;-53
2022/05/23 11:19:37;;;;;;;2.33;1.98;;;;;;;22.18;48.93;100023.44;5071349;28;20494;-53
2022/05/23 11:22:21;;;;;;;3.15;2.03;;;;;;;22.16;48.57;100017.38;5078395;28;20035;-53
2022/05/23 11:25:10;;;;;;;2.92;1.80;;;;;;;22.19;48.77;100005.31;5071312;28;20040;-54
2022/05/23 11:35:54;;;;;;;2.05;1.85;;;;;;;22.17;48.78;99985.72;5064192;28;20084;-55
2022/05/23 11:38:20;;;;;;;2.78;1.88;;;;;;;22.16;48.98;99982.19;5077887;28;20036;-56
2022/05/23 11:41:09;;;;;;;1.92;1.67;;;;;;;22.16;49.12;99979.47;5068448;28;20085;-55
2022/05/23 11:43:34;;;;;;;2.53;1.67;;;;;;;22.15;48.94;99972.41;5075224;28;20024;-57
2022/05/23 11:46:02;;;;;;;3.83;2.25;;;;;;;22.16;49.02;99968.66;5073165;28;20030;-55
2022/05/23 11:48:34;;;;;;;3.03;1.92;;;;;;;22.18;49.17;99960.31;5071886;28;20029;-61
2022/05/23 11:51:40;;;;;;;3.65;2.00;;;;;;;22.18;49.11;99958.44;5068294;28;20028;-55
2022/05/23 11:54:10;;;;;;;2.47;1.80;;;;;;;22.19;49.20;99957.41;5075905;28;20455;-57
2022/05/23 11:56:45;;;;;;;2.83;1.88;;;;;;;22.20;49.06;99945.50;5076560;28;20090;-58
2022/05/23 11:59:12;;;;;;;2.50;1.80;;;;;;;22.19;49.50;99934.91;5076318;28;20056;-60
2022/05/23 12:01:37;;;;;;;4.80;1.88;;;;;;;22.21;49.09;99930.94;5068804;28;20371;-58
2022/05/23 12:04:02;;;;;;;3.78;2.08;;;;;;;22.23;49.13;99929.91;5076684;28;20105;-56
2022/05/23 12:06:28;;;;;;;2.30;1.80;;;;;;;22.23;49.19;99927.19;5073851;28;20055;-53
2022/05/23 12:09:11;;;;;;;2.42;1.65;;;;;;;22.24;49.37;99921.56;5079193;28;20092;-54
2022/05/23 12:11:37;;;;;;;2.50;1.77;;;;;;;22.24;48.97;99913.44;5077135;28;20048;-59
2022/05/23 12:14:11;;;;;;;4.28;1.85;;;;;;;22.24;49.10;99913.44;5065559;28;20099;-57
2022/05/23 12:16:41;;;;;;;2.47;1.98;;;;;;;22.21;49.16;99893.03;5076384;28;20032;-53
2022/05/23 12:19:28;;;;;;;4.53;1.70;;;;;;;22.26;49.27;99900.53;5069394;28;20067;-56
2022/05/23 12:22:19;;;;;;;2.50;1.60;;;;;;;22.25;49.25;99890.72;5073162;28;20025;-54
2022/05/23 12:25:21;;;;;;;3.40;1.65;;;;;;;22.28;48.92;99894.88;5068799;28;20056;-56
2022/05/23 12:27:49;;;;;;;1.85;1.40;;;;;;;22.30;49.35;99890.94;5072481;28;20544;-56
2022/05/23 12:30:17;;;;;;;2.38;2.00;;;;;;;22.31;49.20;99892.56;5070511;28;20051;-55